Latest Weather Observations for Dennes Point

IDT60801

Issued at 11:32 am EST Tuesday 27 June 2017 (issued every 30 minutes, with the page automatically refreshed every 10 minutes)

About weather observations | Map of weather stations | Latest weather observations for TAS | Other Formats
Station Details ID: 094255 Name: DENNES POINT Lat: -43.06 Lon: 147.36 Height: 5.67 m
Data from the previous 72 hours. | See also: Recent months at Dennes Point
Date/Time
EST
Temp
°C
App
Temp
°C
Dew
Point
°C
Rel
Hum
%
Delta-T
°C
Wind Press
QNH
hPa
Press
MSL
hPa
Rain since
9am
mm
Dir  Spd
km/h
Gust
km/h
Spd
kts
Gust
kts
27/11:30am 9.0 5.6 4.0 71 2.2 NE 11 13 6 7 1023.0 1023.0 0.0
27/11:00am 9.1 6.5 4.1 71 2.2 NE 7 7 4 4 1023.4 1023.4 0.0
27/10:30am 8.4 5.4 4.2 75 1.8 N 9 13 5 7 1023.9 1023.9 0.0
27/10:00am 8.2 5.8 4.2 76 1.7 NNE 6 9 3 5 1023.9 1023.9 0.0
27/09:30am 8.1 6.1 4.5 78 1.6 N 4 6 2 3 1023.9 1023.9 0.0
27/09:00am 7.3 5.4 4.8 84 1.1 NNE 4 6 2 3 1023.9 1023.9 0.0
27/08:30am 4.8 2.2 3.3 90 0.6 SSW 6 7 3 4 1023.9 1023.9 0.0
27/08:00am 4.6 1.9 2.9 89 0.7 SW 6 7 3 4 1023.7 1023.7 0.0
27/07:30am 5.3 3.9 3.5 88 0.7 CALM 0 0 0 0 1023.8 1023.8 0.0
27/07:00am 4.7 2.8 2.7 87 0.8 WSW 2 4 1 2 1023.7 1023.7 0.0
27/06:30am 5.6 4.3 3.9 89 0.7 CALM 0 0 0 0 1023.8 1023.8 0.0
27/06:00am 5.7 4.4 3.9 88 0.8 CALM 0 0 0 0 1023.4 1023.4 0.0
27/05:30am 5.7 4.3 3.5 86 0.9 CALM 0 0 0 0 1023.2 1023.2 0.0
27/05:00am 5.4 3.9 2.8 83 1.1 CALM 0 0 0 0 1023.2 1023.2 0.0
27/04:30am 5.9 3.7 3.1 82 1.2 WSW 4 6 2 3 1023.2 1023.2 0.0
27/04:00am 6.3 4.5 3.5 82 1.2 W 2 4 1 2 1023.2 1023.2 0.0
27/03:30am 6.4 5.0 3.4 81 1.3 CALM 0 2 0 1 1023.2 1023.2 0.0
27/03:00am 5.8 3.4 2.4 79 1.4 SW 4 6 2 3 1023.4 1023.4 0.0
27/02:30am 5.2 2.3 2.4 82 1.1 SSW 7 9 4 5 1023.3 1023.3 0.0
27/02:00am 6.2 3.6 3.4 82 1.2 S 6 7 3 4 1023.1 1023.1 0.0
27/01:30am 6.7 4.5 3.3 79 1.4 SW 4 4 2 2 1023.0 1023.0 0.0
27/01:00am 7.5 4.8 3.7 77 1.6 NNW 7 9 4 5 1023.1 1023.1 0.0
27/12:30am 7.5 5.0 3.9 78 1.5 N 6 7 3 4 1023.0 1023.0 0.0
27/12:00am 7.6 5.5 3.8 77 1.6 NNW 4 6 2 3 1023.3 1023.3 0.0
 
Date/Time
EST
Temp
°C
App
Temp
°C
Dew
Point
°C
Rel
Hum
%
Delta-T
°C
Wind Press
QNH
hPa
Press
MSL
hPa
Rain since
9am
mm
Dir  Spd
km/h
Gust
km/h
Spd
kts
Gust
kts
26/11:30pm 7.4 5.5 2.9 73 1.9 WSW 2 6 1 3 1023.3 1023.3 0.0
26/11:00pm 7.9 4.5 3.9 76 1.7 NNW 11 15 6 8 1023.3 1023.3 0.0
26/10:30pm 8.3 6.8 3.2 70 2.2 CALM 0 2 0 1 1023.2 1023.2 0.0
26/10:00pm 7.2 4.3 2.5 72 1.9 SW 7 9 4 5 1023.1 1023.1 0.0
26/09:30pm 8.9 5.8 3.5 69 2.3 N 9 13 5 7 1022.9 1022.9 0.0
26/09:00pm 7.3 4.9 2.4 71 2.0 SW 4 6 2 3 1022.7 1022.7 0.0
26/08:30pm 8.5 6.1 2.3 65 2.6 W 4 6 2 3 1022.6 1022.6 0.0
26/08:00pm 7.9 5.6 2.6 69 2.2 WNW 4 7 2 4 1022.4 1022.4 0.0
26/07:30pm 7.8 5.5 2.5 69 2.2 SW 4 7 2 4 1022.1 1022.1 0.0
26/07:00pm 8.0 5.3 2.5 68 2.3 WNW 6 9 3 5 1021.9 1021.9 0.0
26/06:30pm 8.4 5.2 2.8 68 2.4 W 9 13 5 7 1021.6 1021.6 0.0
26/06:00pm 9.5 4.5 3.5 66 2.6 W 19 24 10 13 1021.5 1021.5 0.0
26/05:30pm 9.3 4.4 4.1 70 2.3 WSW 19 24 10 13 1021.1 1021.1 0.0
26/05:00pm 9.5 4.9 3.9 68 2.4 WSW 17 24 9 13 1020.8 1020.8 0.0
26/04:30pm 9.9 4.7 3.6 65 2.7 WSW 20 32 11 17 1020.4 1020.4 0.0
26/04:00pm 10.6 5.1 4.1 64 2.9 WSW 22 30 12 16 1020.1 1020.1 0.0
26/03:30pm 11.2 6.3 4.2 62 3.1 W 19 24 10 13 1019.9 1019.9 0.0
26/03:00pm 11.6 5.8 4.6 62 3.2 W 24 30 13 16 1019.7 1019.7 0.0
26/02:30pm 11.7 6.7 4.7 62 3.2 WNW 20 26 11 14 1019.5 1019.5 0.0
26/02:00pm 12.0 8.1 5.2 63 3.1 WSW 15 19 8 10 1019.5 1019.5 0.0
26/01:30pm 12.2 7.4 5.6 64 3.1 WSW 20 26 11 14 1019.3 1019.3 0.0
26/01:00pm 10.9 6.1 4.6 65 2.8 WSW 19 22 10 12 1019.1 1019.1 0.0
26/12:30pm 10.6 4.7 4.1 64 2.9 W 24 37 13 20 1019.1 1019.1 0.0
26/12:00pm 10.9 5.9 4.4 64 2.9 W 20 26 11 14 1019.0 1019.0 0.0
26/11:30am 10.8 5.9 4.3 64 2.9 W 19 24 10 13 1018.9 1018.9 0.0
26/11:00am 11.1 7.0 4.1 62 3.1 W 15 20 8 11 1019.0 1019.0 0.0
26/10:30am 10.9 6.9 4.8 66 2.8 W 15 20 8 11 1019.0 1019.0 0.0
26/10:00am 10.6 6.5 4.3 65 2.8 WSW 15 22 8 12 1018.8 1018.8 0.0
26/09:30am 9.9 6.2 4.5 69 2.4 W 13 19 7 10 1018.2 1018.2 0.0
26/09:00am 9.0 4.5 4.0 71 2.2 W 17 20 9 11 1017.8 1017.8 0.0
26/08:30am 8.2 3.1 3.9 74 1.9 W 20 22 11 12 1017.3 1017.3 0.0
26/08:00am 7.8 3.6 3.7 75 1.8 WNW 15 19 8 10 1017.1 1017.1 0.0
26/07:30am 7.8 3.6 3.8 76 1.7 W 15 19 8 10 1016.8 1016.8 0.0
26/07:00am 7.4 3.6 4.0 79 1.5 W 13 19 7 10 1016.5 1016.5 0.0
26/06:30am 7.4 3.6 3.8 78 1.5 W 13 20 7 11 1016.0 1016.0 0.0
26/06:00am 7.8 4.3 3.7 75 1.8 WNW 11 15 6 8 1015.7 1015.7 0.0
26/05:30am 7.8 3.5 3.5 74 1.8 W 15 19 8 10 1015.3 1015.3 0.0
26/05:00am 8.0 3.0 3.8 75 1.8 W 19 24 10 13 1014.9 1014.9 0.0
26/04:30am 7.7 2.7 3.6 75 1.8 WNW 19 22 10 12 1014.4 1014.4 0.0
26/04:00am 7.6 3.0 3.6 76 1.7 W 17 20 9 11 1014.0 1014.0 0.0
26/03:30am 7.4 3.2 3.6 77 1.6 W 15 19 8 10 1013.8 1013.8 0.0
26/03:00am 7.3 4.7 3.4 76 1.7 WNW 6 7 3 4 1013.5 1013.5 0.0
26/02:30am 7.3 4.2 3.5 77 1.6 WSW 9 13 5 7 1013.2 1013.2 0.0
26/02:00am 6.8 3.5 2.7 75 1.7 WSW 9 13 5 7 1012.6 1012.6 0.0
26/01:30am 7.8 3.1 3.1 72 2.0 WSW 17 22 9 12 1012.1 1012.1 0.0
26/01:00am 8.1 2.9 3.4 72 2.0 WSW 20 24 11 13 1011.7 1011.7 0.0
26/12:30am 8.1 2.9 3.6 73 1.9 WSW 20 30 11 16 1011.6 1011.6 0.0
26/12:00am 7.8 2.2 3.7 75 1.8 WSW 22 30 12 16 1011.1 1011.1 0.0
 
Date/Time
EST
Temp
°C
App
Temp
°C
Dew
Point
°C
Rel
Hum
%
Delta-T
°C
Wind Press
QNH
hPa
Press
MSL
hPa
Rain since
9am
mm
Dir  Spd
km/h
Gust
km/h
Spd
kts
Gust
kts
25/11:30pm 8.3 2.8 3.9 74 1.9 WSW 22 28 12 15 1010.8 1010.8 0.0
25/11:00pm 8.3 2.0 3.8 73 1.9 WSW 26 33 14 18 1010.2 1010.2 0.0
25/10:30pm 8.2 2.7 3.9 74 1.9 WSW 22 30 12 16 1009.9 1009.9 0.0
25/10:00pm 8.2 3.7 4.0 75 1.8 WSW 17 20 9 11 1009.5 1009.5 0.0
25/09:30pm 8.5 2.6 3.9 73 2.0 WSW 24 30 13 16 1009.2 1009.2 0.0
25/09:00pm 8.3 3.1 3.8 73 1.9 WSW 20 26 11 14 1008.8 1008.8 0.0
25/08:30pm 8.1 4.0 4.1 76 1.7 WSW 15 20 8 11 1008.0 1008.0 0.0
25/08:00pm 8.5 3.7 4.5 76 1.8 W 19 28 10 15 1007.4 1007.4 0.0
25/07:30pm 8.7 2.6 4.7 76 1.8 WSW 26 30 14 16 1006.8 1006.8 0.0
25/07:00pm 9.0 4.2 4.6 74 2.0 WSW 19 24 10 13 1006.2 1006.2 0.0
25/06:30pm 9.2 3.4 4.2 71 2.2 W 24 32 13 17 1005.6 1005.6 0.0
25/06:00pm 9.0 4.0 4.6 74 2.0 W 20 26 11 14 1004.9 1004.9 0.0
25/05:30pm 9.1 3.3 4.5 73 2.0 W 24 32 13 17 1004.1 1004.1 0.0
25/05:00pm 9.5 3.6 4.1 69 2.4 W 24 37 13 20 1003.5 1003.5 0.0
25/04:30pm 9.9 3.4 4.9 71 2.2 W 28 39 15 21 1003.0 1003.0 0.0
25/04:00pm 10.4 4.2 4.5 67 2.7 W 26 32 14 17 1002.8 1002.8 0.0
25/03:30pm 10.5 5.5 4.4 66 2.7 WNW 20 28 11 15 1002.2 1002.2 0.0
25/03:00pm 10.7 7.2 5.3 69 2.5 NW 13 19 7 10 1001.9 1002.0 0.0
25/02:30pm 11.8 9.0 5.2 64 3.0 NW 9 15 5 8 1001.5 1001.6 0.0
25/02:00pm 10.6 6.1 6.0 73 2.1 WNW 19 24 10 13 1001.7 1001.8 0.0
25/01:30pm 11.5 8.4 5.4 66 2.8 NW 11 22 6 12 1001.5 1001.6 0.0
25/01:00pm 11.2 6.4 5.5 68 2.6 WNW 20 28 11 15 1001.7 1001.8 0.0
25/12:30pm 12.5 10.0 4.7 59 3.6 NW 7 13 4 7 1001.5 1001.6 0.0
25/12:00pm 11.4 8.3 5.5 67 2.7 N 11 19 6 10 1001.4 1001.5 0.0
25/11:30am 11.1 8.1 4.3 63 3.0 NNW 9 17 5 9 1002.2 1002.2 0.0
25/11:00am 11.1 6.3 4.8 65 2.9 N 19 26 10 14 1002.6 1002.6 0.0
25/10:30am 11.1 6.4 5.0 66 2.8 N 19 26 10 14 1002.6 1002.6 0.0
25/10:00am 10.6 5.2 4.3 65 2.8 N 22 32 12 17 1002.6 1002.6 0.0
25/09:30am 10.2 4.6 5.2 71 2.3 N 24 33 13 18 1003.0 1003.0 0.0
25/09:00am 9.7 5.3 4.9 72 2.2 NNW 17 22 9 12 1003.5 1003.5 0.0
25/08:30am 9.6 3.9 5.0 73 2.1 N 24 32 13 17 1003.9 1003.9 0.0
25/08:00am 9.2 4.1 4.2 71 2.2 NNW 20 28 11 15 1003.9 1003.9 0.0
25/07:30am 9.6 4.8 4.4 70 2.3 NNW 19 24 10 13 1004.0 1004.0 0.0
25/07:00am 10.0 5.7 3.5 64 2.8 NW 15 20 8 11 1004.2 1004.2 0.0
25/06:30am 9.9 4.9 3.4 64 2.8 WNW 19 33 10 18 1004.1 1004.1 0.0
25/06:00am 9.9 4.9 3.4 64 2.8 WNW 19 26 10 14 1004.1 1004.1 0.0
25/05:30am 9.8 4.5 3.1 63 2.9 WNW 20 26 11 14 1004.2 1004.2 0.0
25/05:00am 9.9 3.9 3.2 63 2.9 WNW 24 33 13 18 1004.4 1004.4 0.0
25/04:30am 9.1 6.3 2.9 65 2.6 WNW 7 13 4 7 1004.7 1004.7 0.0
25/04:00am 9.4 5.4 2.9 64 2.8 WNW 13 20 7 11 1005.1 1005.1 0.0
25/03:30am 8.6 5.2 4.0 73 2.0 N 11 13 6 7 1005.4 1005.4 0.0
25/03:00am 7.9 4.8 3.8 75 1.8 ENE 9 20 5 11 1005.8 1005.8 0.0
25/02:30am 8.0 4.2 3.7 74 1.8 NNE 13 20 7 11 1006.3 1006.3 0.0
25/02:00am 8.0 4.5 3.3 72 2.0 N 11 17 6 9 1006.6 1006.6 0.0
25/01:30am 8.3 3.7 3.8 73 1.9 N 17 20 9 11 1007.0 1007.0 0.0
25/01:00am 8.8 2.4 5.0 77 1.7 NNE 28 33 15 18 1007.1 1007.1 0.0
25/12:30am 8.9 3.6 4.9 76 1.8 N 22 32 12 17 1007.5 1007.5 0.0
25/12:00am 9.0 5.8 2.8 65 2.6 N 9 15 5 8 1007.8 1007.8 0.0
 
Date/Time
EST
Temp
°C
App
Temp
°C
Dew
Point
°C
Rel
Hum
%
Delta-T
°C
Wind Press
QNH
hPa
Press
MSL
hPa
Rain since
9am
mm
Dir  Spd
km/h
Gust
km/h
Spd
kts
Gust
kts
24/11:30pm 8.4 6.0 2.4 66 2.5 NNW 4 9 2 5 1008.1 1008.1 0.0
24/11:00pm 8.5 5.6 2.5 66 2.5 NW 7 13 4 7 1008.4 1008.4 0.0
24/10:30pm 8.5 4.9 2.7 67 2.4 NNW 11 15 6 8 1008.7 1008.7 0.0
24/10:00pm 8.2 4.9 2.4 67 2.4 WNW 9 17 5 9 1008.9 1008.9 0.0
24/09:30pm 8.3 5.0 2.3 66 2.5 NW 9 17 5 9 1009.0 1009.0 0.0
24/09:00pm 8.4 2.7 2.8 68 2.4 W 22 28 12 15 1009.2 1009.2 0.0
24/08:30pm 8.6 4.1 2.4 65 2.6 WNW 15 20 8 11 1009.5 1009.5 0.0
24/08:00pm 8.4 3.6 2.4 66 2.5 W 17 22 9 12 1009.7 1009.7 0.0
24/07:30pm 8.6 3.4 2.6 66 2.5 W 19 24 10 13 1009.8 1009.8 0.0
24/07:00pm 8.5 2.7 2.5 66 2.5 W 22 28 12 15 1009.6 1009.6 0.0
24/06:30pm 8.5 2.7 2.3 65 2.6 W 22 30 12 16 1009.7 1009.7 0.0
24/06:00pm 8.4 2.9 2.0 64 2.7 W 20 26 11 14 1009.8 1009.8 0.0
24/05:30pm 8.6 4.1 2.2 64 2.7 WNW 15 24 8 13 1009.8 1009.8 0.0
24/05:00pm 8.8 3.5 1.9 62 2.9 W 19 30 10 16 1009.9 1009.9 0.0
24/04:30pm 8.9 3.4 1.8 61 2.9 W 20 28 11 15 1009.9 1009.9 0.0
24/04:00pm 9.0 3.8 2.3 63 2.8 W 19 26 10 14 1009.6 1009.6 0.0
24/03:30pm 8.9 3.0 1.8 61 2.9 W 22 30 12 16 1009.5 1009.5 0.0
24/03:00pm 9.6 2.6 2.0 59 3.2 WSW 28 37 15 20 1009.5 1009.5 0.0
24/02:30pm 9.1 3.3 2.4 63 2.8 W 22 32 12 17 1009.4 1009.4 0.0
24/02:00pm 8.9 2.3 2.0 62 2.9 W 26 35 14 19 1009.3 1009.3 0.0
24/01:30pm 9.7 3.2 2.6 61 3.0 W 26 37 14 20 1009.5 1009.5 0.0
24/01:00pm 9.7 4.0 2.6 61 3.0 W 22 28 12 15 1009.4 1009.4 0.0
24/12:30pm 9.5 3.0 2.6 62 2.9 W 26 35 14 19 1009.5 1009.5 0.0
24/12:00pm 9.3 3.1 2.2 61 3.0 W 24 32 13 17 1009.9 1009.9 0.0

Other Formats:

Comma delimited format used in spreadsheet applications
http://www.bom.gov.au/fwo/IDT60801/IDT60801.94988.axf

JavaScript Object Notation format (JSON) in row-major order
http://www.bom.gov.au/fwo/IDT60801/IDT60801.94988.json